Time;durP1;ratioP1;P1;durP2;ratioP2;P2;SDS_P1;SDS_P2;PMS_P1;PMS_P2;Temp;Humidity;BMP_temperature;BMP_pressure;BME280_temperature;BME280_humidity;BME280_pressure;Samples;Min_cycle;Max_cycle;Signal;HPM_P1;HPM_P2
2022/07/02 00:01:00;;;;;;;6.65;2.70;;;12.30;99.90;;;;;;5072616;28;20036;-44
2022/07/02 00:03:36;;;;;;;8.20;2.72;;;12.20;99.90;;;;;;5071778;28;20402;-43
2022/07/02 00:06:04;;;;;;;7.70;2.55;;;12.50;99.90;;;;;;5077304;28;20052;-43
2022/07/02 00:08:31;;;;;;;6.55;2.65;;;12.50;99.90;;;;;;5075864;28;20105;-42
2022/07/02 00:10:59;;;;;;;7.03;3.03;;;12.30;99.90;;;;;;5076962;28;20047;-47
2022/07/02 00:13:26;;;;;;;7.72;3.10;;;13.00;99.90;;;;;;5076972;28;20128;-44
2022/07/02 00:15:52;;;;;;;8.10;2.75;;;14.00;99.90;;;;;;5077108;28;20028;-46
2022/07/02 00:18:21;;;;;;;7.32;3.00;;;13.00;99.90;;;;;;5076007;28;20120;-44
2022/07/02 00:20:47;;;;;;;8.35;2.85;;;12.90;99.90;;;;;;5076640;28;20055;-45
2022/07/02 00:23:13;;;;;;;8.40;3.10;;;12.20;99.90;;;;;;5076032;28;20044;-45
2022/07/02 00:25:41;;;;;;;10.70;3.17;;;12.20;99.90;;;;;;5075700;28;20044;-45
2022/07/02 00:28:10;;;;;;;6.63;3.13;;;14.30;99.90;;;;;;5076694;28;20124;-42
2022/07/02 00:30:38;;;;;;;5.97;3.20;;;12.00;99.90;;;;;;5075206;28;20035;-47
2022/07/02 00:33:04;;;;;;;7.38;3.40;;;12.10;99.90;;;;;;5075135;28;20040;-43
2022/07/02 00:35:30;;;;;;;7.80;3.00;;;13.40;99.90;;;;;;5076146;28;20514;-42
2022/07/02 00:37:57;;;;;;;8.45;2.70;;;13.20;99.90;;;;;;5077049;28;20055;-42
2022/07/02 00:40:24;;;;;;;6.65;3.00;;;12.10;99.90;;;;;;5075594;28;20100;-42
2022/07/02 00:42:50;;;;;;;8.48;3.17;;;12.00;99.90;;;;;;5076157;28;20051;-42
2022/07/02 00:45:20;;;;;;;9.13;3.10;;;13.10;99.90;;;;;;5078833;28;21189;-42
2022/07/02 00:47:46;;;;;;;7.97;2.95;;;11.80;99.90;;;;;;5076548;28;20118;-42
2022/07/02 00:50:12;;;;;;;9.07;3.17;;;11.80;99.90;;;;;;5076833;28;20056;-43
2022/07/02 00:52:37;;;;;;;7.22;2.83;;;11.80;99.90;;;;;;5075561;28;20132;-43
2022/07/02 00:55:03;;;;;;;8.38;3.10;;;13.10;99.90;;;;;;5076436;28;20569;-44
2022/07/02 00:57:32;;;;;;;12.43;3.75;;;11.80;99.90;;;;;;5076705;28;20082;-43
2022/07/02 00:59:58;;;;;;;8.57;3.10;;;13.40;99.90;;;;;;5078223;28;20123;-42
2022/07/02 01:02:25;;;;;;;6.78;3.00;;;11.90;99.90;;;;;;5076964;28;20131;-42
2022/07/02 01:04:55;;;;;;;7.75;3.38;;;11.80;99.90;;;;;;5075642;28;20480;-42
2022/07/02 01:07:21;;;;;;;7.10;3.53;;;11.90;99.90;;;;;;5074280;28;20046;-41
2022/07/02 01:12:35;;;;;;;9.27;3.90;;;13.40;99.90;;;;;;5075872;28;20160;-42
2022/07/02 01:15:01;;;;;;;8.13;3.58;;;13.20;99.90;;;;;;5075866;28;20079;-43
2022/07/02 01:17:26;;;;;;;6.15;3.58;;;12.70;99.90;;;;;;5074200;28;20123;-42
2022/07/02 01:19:54;;;;;;;8.57;3.80;;;12.60;99.90;;;;;;5074639;28;20899;-42
2022/07/02 01:22:25;;;;;;;7.30;3.95;;;11.80;99.90;;;;;;5073998;28;20127;-42
2022/07/02 01:24:54;;;;;;;8.13;3.78;;;13.10;99.90;;;;;;5075380;28;20067;-47
2022/07/02 01:27:22;;;;;;;7.63;4.28;;;12.90;99.90;;;;;;5074922;28;20555;-42
2022/07/02 01:29:49;;;;;;;7.35;3.95;;;11.90;99.90;;;;;;5074824;28;20580;-40
2022/07/02 01:32:15;;;;;;;9.93;4.78;;;11.90;99.90;;;;;;5075297;28;20151;-43
2022/07/02 01:34:42;;;;;;;8.70;3.85;;;13.10;99.90;;;;;;5074806;28;20040;-42
2022/07/02 01:37:10;;;;;;;9.15;4.50;;;11.90;99.90;;;;;;5074287;28;20043;-43
2022/07/02 01:39:40;;;;;;;10.77;4.40;;;12.60;99.90;;;;;;5075084;28;20093;-41
2022/07/02 01:42:06;;;;;;;10.13;4.38;;;11.80;99.90;;;;;;5074106;28;20036;-42
2022/07/02 01:44:34;;;;;;;8.52;4.47;;;11.80;99.90;;;;;;5075431;28;20044;-42
2022/07/02 01:47:03;;;;;;;10.43;4.55;;;11.80;99.90;;;;;;5074585;28;20039;-41
2022/07/02 01:49:29;;;;;;;8.60;4.03;;;11.80;99.90;;;;;;5074383;28;20063;-42
2022/07/02 01:51:55;;;;;;;8.15;4.55;;;12.20;99.90;;;;;;5075547;28;20211;-41
2022/07/02 01:54:20;;;;;;;11.63;4.63;;;12.40;99.90;;;;;;5074456;28;20059;-43
2022/07/02 01:56:46;;;;;;;8.73;4.10;;;11.80;99.90;;;;;;5075019;28;20036;-42
2022/07/02 01:59:13;;;;;;;9.40;4.38;;;11.90;99.90;;;;;;5075212;28;20666;-41
2022/07/02 02:01:41;;;;;;;13.13;5.50;;;11.80;99.90;;;;;;5075960;28;20401;-44
2022/07/02 02:04:07;;;;;;;9.10;4.75;;;11.70;99.90;;;;;;5074821;28;20571;-42
2022/07/02 02:06:33;;;;;;;8.85;4.47;;;11.70;99.90;;;;;;5075502;28;20032;-43
2022/07/02 02:09:01;;;;;;;11.00;5.05;;;11.70;99.90;;;;;;5075466;28;20119;-43
2022/07/02 02:11:26;;;;;;;11.60;4.68;;;12.90;99.90;;;;;;5074560;28;20059;-45
2022/07/02 02:13:53;;;;;;;11.35;5.00;;;11.70;99.90;;;;;;5075797;28;20464;-42
2022/07/02 02:16:20;;;;;;;11.02;5.40;;;11.90;99.90;;;;;;5076141;28;20085;-41
2022/07/02 02:18:47;;;;;;;12.48;5.07;;;11.90;99.90;;;;;;5075081;28;20039;-44
2022/07/02 02:21:13;;;;;;;8.48;4.47;;;11.70;99.90;;;;;;5074393;28;20039;-41
2022/07/02 02:23:38;;;;;;;11.68;5.15;;;11.80;99.90;;;;;;5073832;28;20509;-43
2022/07/02 02:26:04;;;;;;;11.38;4.80;;;11.60;99.90;;;;;;5074545;28;20040;-42
2022/07/02 02:28:30;;;;;;;14.32;5.20;;;12.40;99.90;;;;;;5073399;28;20051;-41
2022/07/02 02:30:55;;;;;;;9.38;4.55;;;12.00;99.90;;;;;;5074207;28;20039;-41
2022/07/02 02:33:21;;;;;;;9.00;4.30;;;11.60;99.90;;;;;;5070260;28;20048;-42
2022/07/02 02:35:46;;;;;;;9.45;4.30;;;11.70;99.90;;;;;;5074391;28;20078;-43
2022/07/02 02:38:12;;;;;;;11.98;4.75;;;11.30;99.90;;;;;;5074215;28;20115;-42
2022/07/02 02:40:38;;;;;;;10.95;5.03;;;11.60;99.90;;;;;;5072974;28;20078;-45
2022/07/02 02:43:03;;;;;;;9.43;5.05;;;11.60;99.90;;;;;;5071426;28;20044;-42
2022/07/02 02:45:31;;;;;;;9.70;4.88;;;11.70;99.90;;;;;;5073539;28;20531;-41
2022/07/02 02:47:56;;;;;;;11.32;4.72;;;12.90;99.90;;;;;;5074111;28;20101;-41
2022/07/02 02:50:22;;;;;;;11.32;4.65;;;11.50;99.90;;;;;;5073375;28;20502;-45
2022/07/02 02:52:48;;;;;;;14.30;4.68;;;14.00;99.90;;;;;;5073244;28;20046;-43
2022/07/02 02:55:15;;;;;;;13.35;4.82;;;12.40;99.90;;;;;;5071434;28;20085;-45
2022/07/02 02:57:41;;;;;;;9.02;4.10;;;11.70;99.90;;;;;;5073882;28;20040;-43
2022/07/02 03:00:07;;;;;;;12.43;4.22;;;12.40;99.90;;;;;;5073434;28;20058;-43
2022/07/02 03:02:33;;;;;;;11.35;3.88;;;11.70;99.90;;;;;;5072073;28;20789;-41
2022/07/02 03:04:58;;;;;;;7.15;4.07;;;12.40;99.90;;;;;;5072708;28;20028;-43
2022/07/02 03:07:24;;;;;;;11.50;4.70;;;13.00;99.90;;;;;;5072959;28;20081;-42
2022/07/02 03:09:53;;;;;;;11.88;4.38;;;11.90;99.90;;;;;;5073989;28;20044;-42
2022/07/02 03:12:18;;;;;;;11.82;3.95;;;11.60;99.90;;;;;;5073507;28;20042;-44
2022/07/02 03:14:44;;;;;;;10.95;4.13;;;11.70;99.90;;;;;;5072389;28;20040;-44
2022/07/02 03:17:10;;;;;;;9.27;4.15;;;11.80;99.90;;;;;;5073475;28;20051;-45
2022/07/02 03:19:35;;;;;;;8.85;4.13;;;11.80;99.90;;;;;;5072519;28;20028;-41
2022/07/02 03:22:01;;;;;;;17.00;4.80;;;11.60;99.90;;;;;;5074841;28;20530;-41
2022/07/02 03:24:28;;;;;;;9.45;4.05;;;11.90;99.90;;;;;;5073547;28;20043;-42
2022/07/02 03:26:54;;;;;;;11.82;5.00;;;11.60;99.90;;;;;;5073472;28;20036;-43
2022/07/02 03:29:20;;;;;;;10.05;4.80;;;11.70;99.90;;;;;;5072661;28;20043;-42
2022/07/02 03:31:45;;;;;;;14.13;4.40;;;13.30;99.90;;;;;;5073185;28;20048;-44
2022/07/02 03:34:13;;;;;;;10.65;4.28;;;11.80;99.90;;;;;;5073467;28;20040;-43
2022/07/02 03:36:38;;;;;;;8.45;3.97;;;13.00;99.90;;;;;;5071580;28;20501;-41
2022/07/02 03:39:04;;;;;;;8.10;4.70;;;12.40;99.90;;;;;;5073405;28;20043;-42
2022/07/02 03:41:30;;;;;;;10.30;4.43;;;12.10;99.90;;;;;;5071302;28;20062;-43
2022/07/02 03:43:55;;;;;;;13.13;4.50;;;11.90;99.90;;;;;;5073050;28;20043;-42
2022/07/02 03:46:21;;;;;;;11.02;4.20;;;11.90;99.90;;;;;;5071825;28;20044;-43
2022/07/02 03:48:48;;;;;;;10.73;4.32;;;12.00;99.90;;;;;;5073103;28;20040;-42
2022/07/02 03:51:15;;;;;;;14.07;4.78;;;12.00;99.90;;;;;;5070768;28;20695;-44
2022/07/02 03:53:41;;;;;;;8.68;4.55;;;12.00;99.90;;;;;;5071794;28;20097;-46
2022/07/02 03:56:10;;;;;;;9.20;3.90;;;11.90;99.90;;;;;;5072816;28;20044;-43
2022/07/02 03:58:36;;;;;;;12.25;4.82;;;12.20;99.90;;;;;;5070684;28;20040;-42
2022/07/02 04:01:01;;;;;;;8.68;4.32;;;12.20;99.90;;;;;;5072447;28;20093;-45
2022/07/02 04:03:27;;;;;;;11.25;4.55;;;13.50;99.90;;;;;;5072272;28;20111;-44
2022/07/02 04:05:53;;;;;;;16.60;4.80;;;10.20;99.90;;;;;;5072415;28;20039;-42
2022/07/02 04:08:18;;;;;;;9.65;4.55;;;12.40;99.90;;;;;;5072366;28;20043;-43
2022/07/02 04:10:44;;;;;;;14.07;4.93;;;12.40;99.90;;;;;;5071071;28;20044;-43
2022/07/02 04:13:12;;;;;;;8.65;4.32;;;13.70;99.90;;;;;;5072783;28;20036;-42
2022/07/02 04:15:38;;;;;;;8.30;4.35;;;13.80;99.90;;;;;;5074341;28;20707;-45
2022/07/02 04:18:03;;;;;;;13.13;4.30;;;12.70;99.90;;;;;;5071506;28;20032;-43
2022/07/02 04:20:29;;;;;;;9.73;4.20;;;12.80;99.90;;;;;;5071698;28;20543;-45
2022/07/02 04:22:55;;;;;;;9.95;4.47;;;13.30;99.90;;;;;;5070760;28;20086;-43
2022/07/02 04:25:20;;;;;;;14.13;4.60;;;12.70;99.90;;;;;;5071916;28;20416;-44
2022/07/02 04:27:48;;;;;;;12.23;4.28;;;13.20;99.90;;;;;;5071146;28;20048;-43
2022/07/02 04:30:13;;;;;;;13.95;4.95;;;13.00;99.90;;;;;;5071510;28;20417;-43
2022/07/02 04:32:39;;;;;;;8.35;4.13;;;13.10;99.90;;;;;;5071324;28;20048;-42
2022/07/02 04:35:07;;;;;;;12.95;4.95;;;13.10;99.90;;;;;;5072697;28;20876;-42
2022/07/02 04:37:33;;;;;;;8.85;4.05;;;13.10;99.90;;;;;;5073808;28;20360;-47
2022/07/02 04:39:58;;;;;;;14.30;5.07;;;14.40;99.90;;;;;;5072168;28;20120;-45
2022/07/02 04:42:24;;;;;;;11.43;4.68;;;13.50;99.90;;;;;;5071737;28;20207;-45
2022/07/02 04:44:50;;;;;;;13.93;3.95;;;13.30;99.90;;;;;;5073469;28;20046;-47
2022/07/02 04:47:16;;;;;;;8.90;4.28;;;15.50;99.90;;;;;;5074380;28;20123;-47
2022/07/02 04:49:42;;;;;;;11.30;4.13;;;13.60;99.90;;;;;;5073976;28;20067;-46
2022/07/02 04:52:07;;;;;;;11.18;4.22;;;13.90;99.90;;;;;;5072822;28;20055;-49
2022/07/02 04:54:36;;;;;;;9.43;3.95;;;13.90;99.90;;;;;;5076359;28;20052;-44
2022/07/02 04:57:02;;;;;;;10.68;4.50;;;15.40;99.90;;;;;;5074957;28;20059;-47
2022/07/02 04:59:28;;;;;;;7.13;4.28;;;14.00;99.90;;;;;;5076710;28;20591;-45
2022/07/02 05:01:55;;;;;;;10.05;4.85;;;14.00;99.90;;;;;;5077640;28;20076;-48
2022/07/02 05:04:21;;;;;;;8.70;4.60;;;14.10;99.90;;;;;;5075926;28;20404;-47
2022/07/02 05:06:47;;;;;;;10.13;4.93;;;16.40;99.90;;;;;;5075093;28;20282;-47
2022/07/02 05:09:13;;;;;;;11.80;5.30;;;15.20;99.80;;;;;;5076841;28;20417;-44
2022/07/02 05:11:38;;;;;;;13.80;5.63;;;14.40;97.70;;;;;;5075785;28;20562;-42
2022/07/02 05:14:04;;;;;;;8.65;5.55;;;14.50;94.60;;;;;;5076085;28;20039;-42
2022/07/02 05:16:29;;;;;;;13.20;5.68;;;15.60;94.60;;;;;;5075401;28;20036;-44
2022/07/02 05:18:55;;;;;;;9.50;5.97;;;14.40;93.10;;;;;;5076419;28;21915;-42
2022/07/02 05:21:21;;;;;;;9.02;5.22;;;14.50;92.00;;;;;;5074749;28;20109;-42
2022/07/02 05:23:47;;;;;;;11.75;5.28;;;14.50;91.50;;;;;;5075039;28;20523;-42
2022/07/02 05:26:12;;;;;;;11.88;6.32;;;15.80;91.60;;;;;;5074557;28;20155;-42
2022/07/02 05:28:38;;;;;;;9.60;5.53;;;14.70;91.50;;;;;;5075115;28;20470;-43
2022/07/02 05:31:04;;;;;;;9.80;5.00;;;15.00;90.70;;;;;;5075487;28;20083;-42
2022/07/02 05:33:31;;;;;;;7.95;5.10;;;14.80;86.10;;;;;;5073209;28;20036;-42
2022/07/02 05:35:57;;;;;;;8.95;5.13;;;14.80;85.70;;;;;;5074151;28;20043;-42
2022/07/02 05:38:23;;;;;;;11.90;5.53;;;14.80;83.40;;;;;;5074013;28;20039;-44
2022/07/02 05:40:50;;;;;;;10.30;5.10;;;15.00;81.30;;;;;;5073870;28;20083;-43
2022/07/02 05:43:16;;;;;;;9.13;5.07;;;15.10;78.40;;;;;;5074611;28;20043;-42
2022/07/02 05:45:42;;;;;;;9.80;5.10;;;15.30;73.70;;;;;;5074854;28;20255;-43
2022/07/02 05:48:07;;;;;;;10.23;4.75;;;17.00;71.80;;;;;;5073281;28;20044;-45
2022/07/02 05:50:33;;;;;;;9.20;4.10;;;15.90;69.20;;;;;;5074436;28;20059;-43
2022/07/02 05:52:59;;;;;;;11.45;4.70;;;16.40;65.30;;;;;;5074529;28;20043;-41
2022/07/02 05:55:24;;;;;;;11.95;5.25;;;15.40;60.10;;;;;;5072673;28;20349;-45
2022/07/02 05:57:50;;;;;;;13.88;4.38;;;15.60;60.90;;;;;;5074520;28;20504;-43
2022/07/02 06:00:16;;;;;;;15.77;5.90;;;15.60;53.30;;;;;;5075210;28;20082;-43
2022/07/02 06:02:41;;;;;;;11.68;4.15;;;15.60;45.10;;;;;;5072895;28;20066;-45
2022/07/02 06:07:54;;;;;;;8.45;3.60;;;15.60;45.60;;;;;;5074275;28;20051;-43
2022/07/02 06:10:20;;;;;;;8.77;4.22;;;18.20;45.50;;;;;;5075167;28;20048;-44
2022/07/02 06:12:51;;;;;;;8.05;4.03;;;15.80;44.40;;;;;;5074232;28;20774;-44
2022/07/02 06:15:19;;;;;;;10.05;4.07;;;15.90;33.80;;;;;;5075028;28;20040;-42
2022/07/02 06:17:46;;;;;;;12.15;4.22;;;16.40;32.30;;;;;;5074831;28;20523;-46
2022/07/02 06:20:13;;;;;;;7.57;3.70;;;16.40;34.30;;;;;;5074578;28;20447;-43
2022/07/02 06:22:39;;;;;;;9.02;3.55;;;17.10;10.10;;;;;;5074573;28;20140;-44
2022/07/02 06:25:06;;;;;;;10.55;3.95;;;17.70;1.00;;;;;;5075777;28;20044;-45
2022/07/02 06:27:33;;;;;;;11.32;4.03;;;18.00;99.90;;;;;;5074530;28;20120;-43
2022/07/02 06:30:03;;;;;;;10.80;3.78;;;18.00;99.90;;;;;;5074294;28;20044;-43
2022/07/02 06:32:31;;;;;;;9.65;3.67;;;17.90;99.90;;;;;;5072286;28;20385;-45
2022/07/02 06:34:57;;;;;;;8.07;3.03;;;17.70;99.90;;;;;;5073899;28;20364;-46
2022/07/02 06:37:24;;;;;;;9.20;3.25;;;18.10;99.90;;;;;;5073293;28;20036;-43
2022/07/02 06:39:52;;;;;;;7.88;3.80;;;18.10;1.00;;;;;;5074394;28;20040;-44
2022/07/02 06:42:22;;;;;;;8.65;2.95;;;18.30;1.00;;;;;;5073523;28;20196;-43
2022/07/02 06:44:50;;;;;;;11.95;3.17;;;18.00;60.70;;;;;;5072757;28;20071;-43
2022/07/02 06:47:17;;;;;;;9.43;3.20;;;18.00;99.90;;;;;;5073462;28;20412;-47
2022/07/02 06:49:43;;;;;;;10.98;3.75;;;17.40;99.90;;;;;;5073352;28;20048;-45
2022/07/02 06:52:09;;;;;;;6.35;2.42;;;17.70;99.90;;;;;;5073993;28;20048;-47
2022/07/02 06:54:37;;;;;;;9.85;2.90;;;20.00;99.90;;;;;;5073382;28;20088;-44
2022/07/02 06:57:04;;;;;;;10.38;2.97;;;18.10;99.90;;;;;;5074230;28;20516;-43
2022/07/02 06:59:30;;;;;;;6.90;2.75;;;18.80;99.90;;;;;;5072318;28;20100;-46
2022/07/02 07:01:56;;;;;;;7.85;2.60;;;19.10;99.90;;;;;;5072964;28;20597;-45
2022/07/02 07:04:23;;;;;;;8.35;2.70;;;18.80;1.00;;;;;;5073950;28;20147;-43
2022/07/02 07:06:55;;;;;;;6.47;2.15;;;19.20;99.90;;;;;;5073202;28;20040;-46
2022/07/02 07:09:25;;;;;;;5.35;2.40;;;19.10;99.90;;;;;;5072944;28;20087;-43
2022/07/02 07:11:50;;;;;;;9.63;2.83;;;19.50;99.90;;;;;;5072432;28;20052;-45
2022/07/02 07:14:17;;;;;;;9.25;2.13;;;20.20;1.00;;;;;;5072052;28;20469;-44
2022/07/02 07:16:43;;;;;;;7.88;2.33;;;20.70;99.90;;;;;;5073717;28;20577;-46
2022/07/02 07:19:09;;;;;;;11.18;2.47;;;21.00;1.00;;;;;;5072267;28;20063;-44
2022/07/02 07:21:38;;;;;;;7.85;2.00;;;21.40;99.90;;;;;;5072536;28;20035;-44
2022/07/02 07:24:05;;;;;;;8.40;2.10;;;21.70;1.00;;;;;;5074446;28;20385;-44
2022/07/02 07:26:31;;;;;;;7.43;1.70;;;22.60;99.90;;;;;;5071360;28;20143;-44
2022/07/02 07:28:57;;;;;;;4.97;1.55;;;23.00;1.00;;;;;;5073962;28;20757;-45
2022/07/02 07:31:23;;;;;;;9.77;1.85;;;23.30;99.90;;;;;;5073933;28;20043;-47
2022/07/02 07:33:53;;;;;;;6.68;1.73;;;24.10;99.90;;;;;;5074478;28;20083;-42
2022/07/02 07:36:20;;;;;;;6.80;2.03;;;24.10;67.90;;;;;;5073238;28;20672;-43
2022/07/02 07:39:18;;;;;;;4.97;1.40;;;24.30;1.00;;;;;;5087542;28;20056;-43
2022/07/02 07:41:44;;;;;;;6.82;1.60;;;25.00;1.00;;;;;;5070506;28;20058;-46
2022/07/02 07:44:10;;;;;;;7.82;1.77;;;25.50;1.00;;;;;;5073226;28;20063;-44
2022/07/02 07:46:38;;;;;;;5.10;1.60;;;25.80;1.00;;;;;;5074241;28;20036;-43
2022/07/02 07:49:03;;;;;;;4.78;1.40;;;26.00;99.90;;;;;;5073866;28;20125;-45
2022/07/02 07:51:29;;;;;;;5.95;1.60;;;26.30;99.90;;;;;;5074595;28;20554;-45
2022/07/02 07:53:55;;;;;;;3.67;1.50;;;26.50;99.90;;;;;;5074676;28;20801;-44
2022/07/02 07:56:21;;;;;;;6.45;1.48;;;26.90;99.90;;;;;;5073920;28;20472;-47
2022/07/02 07:58:47;;;;;;;4.10;0.95;;;26.50;99.90;;;;;;5072072;28;20032;-44
2022/07/02 08:01:15;;;;;;;3.72;0.90;;;26.20;99.90;;;;;;5074395;28;20036;-47
2022/07/02 08:03:41;;;;;;;5.43;1.25;;;26.20;99.90;;;;;;5075071;28;20044;-45
2022/07/02 08:06:07;;;;;;;5.53;0.98;;;26.60;99.90;;;;;;5074815;28;20047;-44
2022/07/02 08:08:32;;;;;;;6.22;0.98;;;26.50;99.90;;;;;;5074227;28;20067;-45
2022/07/02 08:11:00;;;;;;;5.57;0.90;;;26.90;99.90;;;;;;5073022;28;20036;-44
2022/07/02 08:13:26;;;;;;;3.67;0.93;;;27.00;99.90;;;;;;5073961;28;20464;-45
2022/07/02 08:15:52;;;;;;;6.15;1.10;;;27.00;99.90;;;;;;5075001;28;20035;-47
2022/07/02 08:18:19;;;;;;;3.85;1.02;;;27.00;99.90;;;;;;5074229;28;20040;-44
2022/07/02 08:20:45;;;;;;;6.63;1.17;;;26.70;99.90;;;;;;5073898;28;20040;-45
2022/07/02 08:23:11;;;;;;;4.85;1.60;;;26.70;99.90;;;;;;5075601;28;20040;-45
2022/07/02 08:25:36;;;;;;;2.67;0.90;;;26.60;99.90;;;;;;5074325;28;20664;-45
2022/07/02 08:28:03;;;;;;;4.10;1.05;;;26.50;99.90;;;;;;5077513;28;20113;-44
2022/07/02 08:30:29;;;;;;;3.72;1.00;;;26.70;99.90;;;;;;5077402;28;20386;-45
2022/07/02 08:32:55;;;;;;;3.22;0.93;;;26.70;99.90;;;;;;5078394;28;20040;-48
2022/07/02 08:35:21;;;;;;;5.35;1.08;;;26.10;99.90;;;;;;5076444;28;20032;-44
2022/07/02 08:37:47;;;;;;;4.20;1.02;;;26.20;99.90;;;;;;5076992;28;20040;-44
2022/07/02 08:40:14;;;;;;;5.20;1.10;;;26.60;99.90;;;;;;5077431;28;20071;-47
2022/07/02 08:42:42;;;;;;;3.65;1.00;;;26.30;99.90;;;;;;5076370;28;20036;-45
2022/07/02 08:45:09;;;;;;;3.90;1.20;;;26.30;99.90;;;;;;5076604;28;20063;-50
2022/07/02 08:47:36;;;;;;;5.35;1.10;;;28.50;99.90;;;;;;5078787;28;20040;-46
2022/07/02 08:50:02;;;;;;;4.95;1.30;;;26.50;99.90;;;;;;5075906;28;20048;-45
2022/07/02 08:52:28;;;;;;;5.15;1.10;;;26.30;99.90;;;;;;5077458;28;20181;-44
2022/07/02 08:54:55;;;;;;;4.72;1.00;;;26.20;99.90;;;;;;5077787;28;20043;-44
2022/07/02 08:57:22;;;;;;;5.78;1.10;;;26.00;99.90;;;;;;5076414;28;20044;-47
2022/07/02 08:59:48;;;;;;;4.57;1.02;;;25.90;99.90;;;;;;5076417;28;20404;-46
2022/07/02 09:02:18;;;;;;;3.28;0.70;;;25.90;99.90;;;;;;5075484;28;20044;-46
2022/07/02 09:04:50;;;;;;;7.15;1.25;;;25.70;99.90;;;;;;5076701;28;20135;-46
2022/07/02 09:07:19;;;;;;;4.28;1.35;;;25.70;99.90;;;;;;5077636;28;20577;-46
2022/07/02 09:09:45;;;;;;;3.35;0.90;;;25.30;99.90;;;;;;5074180;28;20146;-44
2022/07/02 09:12:13;;;;;;;2.28;0.70;;;25.40;99.90;;;;;;5076691;28;20049;-47
2022/07/02 09:14:40;;;;;;;3.97;0.85;;;25.40;99.90;;;;;;5076613;28;20047;-48
2022/07/02 09:17:07;;;;;;;94.40;11.85;;;25.00;99.90;;;;;;5077173;28;20113;-44
2022/07/02 09:19:35;;;;;;;68.07;9.38;;;24.90;99.90;;;;;;5075460;28;20753;-46
2022/07/02 09:22:00;;;;;;;11.45;1.77;;;24.90;99.90;;;;;;5077296;28;20140;-46
2022/07/02 09:24:37;;;;;;;13.70;1.90;;;24.70;99.90;;;;;;5076632;28;20493;-47
2022/07/02 09:27:08;;;;;;;5.47;1.08;;;24.30;99.90;;;;;;5076338;28;20102;-44
2022/07/02 09:29:40;;;;;;;3.97;0.88;;;24.00;99.90;;;;;;5077282;28;20123;-45
2022/07/02 09:32:08;;;;;;;2.33;0.90;;;23.90;99.90;;;;;;5075697;28;20040;-45
2022/07/02 09:34:34;;;;;;;2.25;0.60;;;23.40;99.90;;;;;;5075564;28;20435;-44
2022/07/02 09:37:00;;;;;;;4.75;0.80;;;23.30;99.90;;;;;;5075691;28;20683;-47
2022/07/02 09:39:30;;;;;;;4.28;0.88;;;23.20;99.90;;;;;;5076620;28;20447;-44
2022/07/02 09:41:57;;;;;;;3.50;1.15;;;23.20;99.90;;;;;;5075668;28;20040;-43
2022/07/02 09:44:26;;;;;;;3.25;0.82;;;23.10;99.90;;;;;;5075659;28;20377;-48
2022/07/02 09:46:52;;;;;;;5.47;0.80;;;23.40;99.90;;;;;;5076862;28;20127;-42
2022/07/02 09:49:17;;;;;;;4.70;0.98;;;22.90;99.90;;;;;;5077223;28;20108;-44
2022/07/02 09:51:52;;;;;;;4.32;1.00;;;22.90;99.90;;;;;;5076882;28;20113;-46
2022/07/02 09:54:19;;;;;;;3.40;0.60;;;22.90;99.90;;;;;;5077227;28;20044;-46
2022/07/02 09:56:56;;;;;;;3.20;1.05;;;23.30;99.90;;;;;;5076311;28;20044;-43
2022/07/02 09:59:22;;;;;;;2.05;0.60;;;23.30;99.90;;;;;;5075363;28;20051;-44
2022/07/02 10:01:49;;;;;;;5.82;1.10;;;23.10;99.90;;;;;;5076881;28;20040;-45
2022/07/02 10:04:29;;;;;;;2.00;0.60;;;22.70;99.90;;;;;;5075797;28;20055;-43
2022/07/02 10:06:55;;;;;;;4.55;0.75;;;22.70;99.90;;;;;;5073489;28;20043;-45
2022/07/02 10:09:23;;;;;;;4.38;0.70;;;22.70;99.90;;;;;;5076570;28;20097;-46
2022/07/02 10:11:50;;;;;;;4.65;1.15;;;22.50;99.90;;;;;;5075044;28;20131;-45
2022/07/02 10:14:20;;;;;;;5.68;0.95;;;22.30;99.90;;;;;;5076035;28;20044;-44
2022/07/02 10:16:47;;;;;;;9.57;1.60;;;23.90;99.90;;;;;;5074735;28;20527;-45
2022/07/02 10:19:14;;;;;;;10.98;1.63;;;22.40;99.90;;;;;;5076563;28;20040;-45
2022/07/02 10:21:39;;;;;;;6.10;1.10;;;24.80;99.90;;;;;;5074165;28;20036;-45
2022/07/02 10:24:10;;;;;;;5.43;0.95;;;23.60;99.90;;;;;;5075089;28;20047;-44
2022/07/02 10:26:37;;;;;;;6.97;0.70;;;22.70;99.90;;;;;;5075608;28;20147;-46
2022/07/02 10:29:02;;;;;;;3.38;0.80;;;22.70;99.90;;;;;;5073916;28;20036;-44
2022/07/02 10:31:34;;;;;;;6.05;0.70;;;22.40;99.90;;;;;;5073233;28;20029;-45
2022/07/02 10:34:24;;;;;;;2.03;0.55;;;22.40;99.90;;;;;;5074832;28;20036;-44
2022/07/02 10:36:52;;;;;;;5.18;0.70;;;22.70;99.90;;;;;;5074074;28;20855;-45
2022/07/02 10:39:19;;;;;;;6.05;0.80;;;22.80;99.90;;;;;;5075564;28;20401;-42
2022/07/02 10:41:45;;;;;;;2.83;0.70;;;23.00;99.90;;;;;;5073311;28;20076;-44
2022/07/02 10:44:13;;;;;;;2.78;0.60;;;23.00;99.90;;;;;;5072838;28;20143;-45
2022/07/02 10:46:39;;;;;;;3.05;0.50;;;23.00;99.90;;;;;;5074373;28;20071;-43
2022/07/02 10:49:05;;;;;;;1.70;0.60;;;23.00;99.90;;;;;;5074603;28;20095;-44
2022/07/02 10:51:36;;;;;;;1.58;0.50;;;23.50;99.90;;;;;;5075138;28;20043;-42
2022/07/02 10:54:06;;;;;;;24.90;5.97;;;23.50;99.90;;;;;;5069793;28;20110;-43
2022/07/02 10:56:54;;;;;;;48.22;7.90;;;23.70;99.90;;;;;;5073519;28;20055;-42
2022/07/02 10:59:27;;;;;;;12.85;1.98;;;23.40;99.90;;;;;;5073845;28;20036;-43
2022/07/02 11:02:05;;;;;;;17.20;2.05;;;23.60;99.90;;;;;;5075359;28;20432;-43
2022/07/02 11:04:31;;;;;;;4.97;1.20;;;25.70;99.90;;;;;;5074563;28;20040;-44
2022/07/02 11:07:15;;;;;;;58.65;12.50;;;23.40;99.90;;;;;;5072643;28;20516;-42
2022/07/02 11:09:55;;;;;;;30.90;6.03;;;23.60;99.90;;;;;;5076012;28;20098;-42
2022/07/02 11:12:57;;;;;;;9.95;2.00;;;24.50;99.90;;;;;;5074191;28;20181;-42
2022/07/02 11:15:29;;;;;;;;;;;23.90;99.90;;;;;;5011268;28;20127;-43
2022/07/02 11:17:57;;;;;;;2.47;0.52;;;23.60;99.90;;;;;;5011973;28;19935;-43
2022/07/02 11:20:26;;;;;;;47.08;10.80;;;23.70;99.90;;;;;;5011550;28;20119;-42
2022/07/02 11:22:53;;;;;;;47.65;9.68;;;26.00;99.90;;;;;;5011025;28;20045;-43
2022/07/02 11:25:19;;;;;;;12.65;2.45;;;23.70;99.90;;;;;;5011235;28;20030;-42
2022/07/02 11:28:01;;;;;;;8.55;2.10;;;23.70;99.90;;;;;;5010598;28;20052;-42
2022/07/02 11:30:29;;;;;;;7.47;1.58;;;23.10;99.90;;;;;;5010500;28;20624;-42
2022/07/02 11:32:54;;;;;;;3.53;0.82;;;22.80;99.90;;;;;;5011062;28;20057;-42
2022/07/02 11:35:20;;;;;;;3.95;0.75;;;22.60;99.90;;;;;;5010534;28;20096;-43
2022/07/02 11:37:46;;;;;;;1.95;0.60;;;23.00;99.90;;;;;;5011098;28;20827;-43
2022/07/02 11:40:20;;;;;;;6.57;1.45;;;23.10;99.90;;;;;;5009459;28;20181;-43
2022/07/02 11:42:45;;;;;;;5.70;1.23;;;23.60;99.90;;;;;;4976374;28;20616;-42
2022/07/02 11:45:11;;;;;;;3.65;0.75;;;24.10;99.90;;;;;;4995357;28;20060;-42
2022/07/02 11:47:48;;;;;;;4.85;0.90;;;24.10;99.90;;;;;;5010092;28;20068;-42
2022/07/02 11:50:15;;;;;;;4.00;0.70;;;23.80;99.90;;;;;;5010845;28;20059;-42
2022/07/02 11:52:41;;;;;;;4.95;1.00;;;24.00;99.90;;;;;;5052200;28;20040;-42
2022/07/02 11:55:14;;;;;;;4.68;1.10;;;25.20;99.90;;;;;;5073471;28;20040;-43
2022/07/02 11:57:40;;;;;;;6.38;1.17;;;24.30;99.90;;;;;;5073204;28;20040;-44
2022/07/02 12:00:06;;;;;;;2.00;0.68;;;24.60;99.90;;;;;;5076339;28;20512;-43
2022/07/02 12:02:41;;;;;;;2.13;0.57;;;24.50;99.90;;;;;;5080046;28;20105;-44
2022/07/02 12:05:17;;;;;;;5.40;0.70;;;24.20;99.90;;;;;;5081305;28;20146;-42
2022/07/02 12:07:43;;;;;;;3.97;0.52;;;24.50;99.90;;;;;;5079945;28;20100;-45
2022/07/02 12:10:14;;;;;;;3.10;0.60;;;24.70;99.90;;;;;;5082804;28;20047;-45
2022/07/02 12:12:40;;;;;;;2.50;0.57;;;24.90;99.90;;;;;;5082201;28;20051;-45
2022/07/02 12:15:07;;;;;;;2.22;0.60;;;24.70;99.90;;;;;;5080882;28;20036;-44
2022/07/02 12:17:36;;;;;;;6.45;0.68;;;24.50;99.90;;;;;;5080981;28;20046;-42
2022/07/02 12:20:06;;;;;;;2.55;0.40;;;24.50;99.90;;;;;;5081212;28;20063;-43
2022/07/02 12:22:34;;;;;;;3.08;0.90;;;24.50;99.90;;;;;;5081883;28;20504;-44
2022/07/02 12:25:05;;;;;;;1.60;0.50;;;24.00;99.90;;;;;;5079698;28;20834;-44
2022/07/02 12:27:36;;;;;;;2.28;0.50;;;23.90;99.90;;;;;;5079811;28;20067;-44
2022/07/02 12:30:15;;;;;;;1.75;0.60;;;23.60;99.90;;;;;;5080241;28;20036;-41
2022/07/02 12:32:40;;;;;;;3.47;0.60;;;23.70;99.90;;;;;;5081345;28;20566;-42
2022/07/02 12:35:10;;;;;;;2.05;0.40;;;23.90;99.90;;;;;;5080092;28;20032;-42
2022/07/02 12:37:42;;;;;;;1.70;0.45;;;24.00;99.90;;;;;;5081516;28;20040;-44
2022/07/02 12:40:16;;;;;;;4.63;0.90;;;24.20;99.90;;;;;;5081153;28;20500;-42
2022/07/02 12:42:54;;;;;;;4.60;0.80;;;24.40;99.90;;;;;;5079366;28;20174;-46
2022/07/02 12:45:34;;;;;;;3.75;0.50;;;24.40;99.90;;;;;;5080653;28;20028;-42
2022/07/02 12:48:05;;;;;;;2.65;0.75;;;24.70;99.90;;;;;;5080675;28;20048;-44
2022/07/02 12:50:35;;;;;;;2.08;0.70;;;24.80;99.90;;;;;;5081384;28;20112;-44
2022/07/02 12:53:03;;;;;;;2.80;0.60;;;24.50;99.90;;;;;;5081782;28;20031;-41